createdAt,value
2017-05-07T14:51:18.366Z,175
2017-05-07T14:51:59.156Z,175
2017-05-07T14:52:40.146Z,170
2017-05-07T14:53:20.992Z,170
2017-05-07T14:54:01.778Z,170
2017-05-07T14:54:42.796Z,165
2017-05-07T14:55:23.421Z,165
2017-05-07T14:56:04.157Z,165
2017-05-07T14:56:44.918Z,165
2017-05-07T14:57:25.703Z,170
2017-05-07T14:58:06.414Z,170
2017-05-07T14:58:47.166Z,175
2017-05-07T14:59:27.945Z,175
2017-05-07T15:00:08.523Z,175
2017-05-07T15:00:49.271Z,175
2017-05-07T15:01:30.001Z,175
2017-05-07T15:02:10.976Z,175
2017-05-07T15:02:51.816Z,170
2017-05-07T15:03:32.507Z,170
2017-05-07T15:04:13.285Z,170
2017-05-07T15:04:54.135Z,170
2017-05-07T15:05:34.834Z,170
2017-05-07T15:06:15.726Z,170
2017-05-07T15:06:56.298Z,175
2017-05-07T15:07:37.051Z,175
2017-05-07T15:08:17.744Z,175
2017-05-07T15:08:58.443Z,175
2017-05-07T15:09:39.009Z,175
2017-05-07T15:10:19.726Z,175
2017-05-07T15:11:01.528Z,175
2017-05-07T15:11:42.872Z,170
2017-05-07T15:12:23.962Z,170
2017-05-07T15:13:04.668Z,170
2017-05-07T15:13:45.423Z,170
2017-05-07T15:14:26.176Z,165
2017-05-07T15:15:06.947Z,165
2017-05-07T15:15:47.707Z,160
2017-05-07T15:16:28.450Z,160
2017-05-07T15:17:10.231Z,160
2017-05-07T15:17:50.897Z,155
2017-05-07T15:18:31.534Z,155
2017-05-07T15:19:12.293Z,155
2017-05-07T15:19:53.039Z,155
2017-05-07T15:20:33.809Z,150
2017-05-07T15:21:14.560Z,150
2017-05-07T15:21:55.306Z,150
2017-05-07T15:22:35.961Z,150
2017-05-07T15:23:16.718Z,150
2017-05-07T15:23:57.478Z,145
2017-05-07T15:24:38.237Z,145
2017-05-07T15:25:18.985Z,145
2017-05-07T15:25:59.741Z,145
2017-05-07T15:26:40.519Z,150
2017-05-07T15:27:21.258Z,150
2017-05-07T15:28:02.011Z,150
2017-05-07T15:28:42.774Z,150
2017-05-07T15:29:23.537Z,150
2017-05-07T15:30:04.288Z,150
2017-05-07T15:30:45.027Z,155
2017-05-07T15:31:25.830Z,155
2017-05-07T15:32:06.397Z,155
2017-05-07T15:32:47.085Z,155
2017-05-07T15:33:27.879Z,155
2017-05-07T15:34:08.650Z,155
2017-05-07T15:34:49.269Z,155
2017-05-07T15:35:30.046Z,155
2017-05-07T15:36:10.767Z,155
2017-05-07T15:36:51.564Z,160
2017-05-07T15:37:32.140Z,160
2017-05-07T15:38:12.840Z,160
2017-05-07T15:38:53.687Z,155
2017-05-07T15:39:34.487Z,155
2017-05-07T15:40:15.099Z,155
2017-05-07T15:40:55.857Z,150
2017-05-07T15:41:36.624Z,150
2017-05-07T15:42:17.363Z,150
2017-05-07T15:42:58.125Z,150
2017-05-07T15:43:38.888Z,150
2017-05-07T15:44:19.640Z,150
2017-05-07T15:45:00.281Z,150
2017-05-07T15:45:40.921Z,150
2017-05-07T15:46:21.475Z,150
2017-05-07T15:47:02.144Z,150
2017-05-07T15:47:42.814Z,150
2017-05-07T15:48:23.369Z,150
2017-05-07T15:49:04.098Z,150
2017-05-07T15:49:44.758Z,150
2017-05-07T15:50:25.350Z,150
2017-05-07T15:51:05.958Z,155
2017-05-07T15:51:46.620Z,155
2017-05-07T15:52:27.265Z,155
2017-05-07T15:53:07.920Z,155
2017-05-07T15:53:48.571Z,155
2017-05-07T15:54:29.289Z,155
2017-05-07T15:55:09.980Z,155
2017-05-07T15:55:50.637Z,155
2017-05-07T15:56:31.288Z,150
2017-05-07T15:57:11.943Z,150
2017-05-07T15:57:52.595Z,150
2017-05-07T15:58:33.242Z,145
2017-05-07T15:59:13.891Z,145
2017-05-07T15:59:55.551Z,140
2017-05-07T16:00:36.213Z,135
2017-05-07T16:01:16.778Z,135
2017-05-07T16:01:57.429Z,130
2017-05-07T16:02:38.091Z,130
2017-05-07T16:03:18.664Z,125
2017-05-07T16:03:59.292Z,125
2017-05-07T16:04:39.925Z,125
2017-05-07T16:05:20.498Z,120
2017-05-07T16:06:01.139Z,120
2017-05-07T16:06:41.836Z,115
2017-05-07T16:07:22.453Z,115
2017-05-07T16:08:04.112Z,115
2017-05-07T16:08:45.979Z,110
2017-05-07T16:09:26.653Z,110
2017-05-07T16:10:08.333Z,110
2017-05-07T16:10:48.988Z,110
2017-05-07T16:11:30.664Z,105
2017-05-07T16:12:11.320Z,105
2017-05-07T16:12:51.961Z,105
2017-05-07T16:13:32.618Z,100
2017-05-07T16:14:14.299Z,100
2017-05-07T16:14:54.948Z,100
2017-05-07T16:15:35.605Z,100
2017-05-07T16:16:16.261Z,95
2017-05-07T16:16:56.912Z,95
2017-05-07T16:17:37.562Z,95
2017-05-07T16:18:18.220Z,95
2017-05-07T16:18:58.884Z,95
2017-05-07T16:19:39.526Z,95
2017-05-07T16:20:20.173Z,90
2017-05-07T16:21:00.872Z,90
2017-05-07T16:21:41.431Z,90
2017-05-07T16:22:22.032Z,90
2017-05-07T16:23:02.689Z,85
2017-05-07T16:23:43.380Z,85
2017-05-07T16:24:23.935Z,80
2017-05-07T16:25:04.648Z,80
2017-05-07T16:25:45.354Z,75
2017-05-07T16:26:25.996Z,70
2017-05-07T16:27:06.561Z,70
2017-05-07T16:27:47.166Z,70
2017-05-07T16:28:27.811Z,70
2017-05-07T16:29:08.508Z,70
2017-05-07T16:29:49.072Z,75
2017-05-07T16:30:29.667Z,80
2017-05-07T16:31:10.314Z,80
2017-05-07T16:31:50.875Z,85
2017-05-07T16:32:31.558Z,85
2017-05-07T16:33:12.184Z,85
2017-05-07T16:33:52.737Z,85
2017-05-07T16:34:33.767Z,85
2017-05-07T16:35:14.436Z,90
2017-05-07T16:35:54.998Z,90
2017-05-07T16:36:35.631Z,90
2017-05-07T16:37:16.276Z,95
2017-05-07T16:37:56.939Z,95
2017-05-07T16:38:37.587Z,95
2017-05-07T16:39:18.234Z,95
2017-05-07T16:39:58.912Z,95
2017-05-07T16:40:39.541Z,95
2017-05-07T16:41:20.209Z,95
2017-05-07T16:42:00.864Z,95
2017-05-07T16:42:42.933Z,95
2017-05-07T16:43:23.603Z,95
2017-05-07T16:44:04.240Z,90
2017-05-07T16:44:44.891Z,90
2017-05-07T16:45:25.555Z,95
2017-05-07T16:46:06.259Z,95
2017-05-07T16:46:46.826Z,95
2017-05-07T16:47:27.542Z,95
2017-05-07T16:48:08.176Z,95
2017-05-07T16:48:48.859Z,95
2017-05-07T16:49:29.434Z,95
2017-05-07T16:50:10.026Z,95
2017-05-07T16:50:50.683Z,95
2017-05-07T16:51:31.332Z,95
2017-05-07T16:52:11.992Z,95
2017-05-07T16:52:52.675Z,95
2017-05-07T16:53:33.296Z,95
2017-05-07T16:54:13.969Z,95
2017-05-07T16:54:54.599Z,95
2017-05-07T16:55:35.248Z,95
2017-05-07T16:56:16.039Z,95
2017-05-07T16:56:56.632Z,95
2017-05-07T16:57:37.308Z,95
2017-05-07T16:58:17.967Z,95
2017-05-07T16:58:58.654Z,90
2017-05-07T16:59:39.230Z,90
2017-05-07T17:00:20.849Z,90
2017-05-07T17:01:01.608Z,90
2017-05-07T17:01:42.290Z,90
2017-05-07T17:02:22.857Z,90
2017-05-07T17:03:03.631Z,90
2017-05-07T17:03:44.313Z,90
2017-05-07T17:04:25.005Z,90
2017-05-07T17:05:05.576Z,90
2017-05-07T17:05:46.177Z,90
2017-05-07T17:06:26.823Z,90
2017-05-07T17:07:07.488Z,90
2017-05-07T17:07:48.136Z,90
2017-05-07T17:08:28.781Z,90
2017-05-07T17:09:09.740Z,85
2017-05-07T17:09:50.400Z,85
2017-05-07T17:10:32.074Z,85
2017-05-07T17:11:12.631Z,85
2017-05-07T17:11:53.273Z,85
2017-05-07T17:12:33.926Z,80
2017-05-07T17:13:14.501Z,80
2017-05-07T17:13:55.156Z,80
2017-05-07T17:14:36.181Z,80
2017-05-07T17:15:16.789Z,75
2017-05-07T17:15:57.353Z,75
2017-05-07T17:16:38.045Z,70
2017-05-07T17:17:19.015Z,70
2017-05-07T17:17:59.656Z,70
2017-05-07T17:18:40.321Z,65
2017-05-07T17:19:20.888Z,65
2017-05-07T17:20:01.529Z,65
2017-05-07T17:20:42.588Z,65
2017-05-07T17:21:23.154Z,60
2017-05-07T17:22:03.795Z,60
2017-05-07T17:22:44.435Z,60
2017-05-07T17:23:25.101Z,60
2017-05-07T17:24:05.736Z,55
2017-05-07T17:24:46.404Z,55
2017-05-07T17:25:27.069Z,55
2017-05-07T17:26:07.646Z,55
2017-05-07T17:26:49.326Z,55
2017-05-07T17:27:29.930Z,55
2017-05-07T17:28:10.501Z,50
2017-05-07T17:28:51.140Z,50
2017-05-07T17:29:31.812Z,45
2017-05-07T17:30:12.789Z,45
2017-05-07T17:30:53.409Z,45
2017-05-07T17:31:34.050Z,40
2017-05-07T17:32:14.714Z,40
2017-05-07T17:32:55.369Z,40
2017-05-07T17:33:36.109Z,35
2017-05-07T17:34:16.774Z,35
2017-05-07T17:34:57.425Z,35
2017-05-07T17:35:38.064Z,30
2017-05-07T17:36:18.731Z,30
2017-05-07T17:36:59.387Z,30
2017-05-07T17:37:40.025Z,30
2017-05-07T17:38:20.690Z,30
2017-05-07T17:39:01.342Z,25
2017-05-07T17:39:42.410Z,25
2017-05-07T17:40:23.085Z,25
2017-05-07T17:41:03.757Z,25
2017-05-07T17:41:44.326Z,25
2017-05-07T17:42:25.040Z,20
2017-05-07T17:43:05.670Z,20
2017-05-07T17:43:46.356Z,20
2017-05-07T17:44:26.930Z,20
2017-05-07T17:45:07.628Z,20
2017-05-07T17:45:48.292Z,20
2017-05-07T17:46:28.974Z,20
2017-05-07T17:47:09.587Z,20
2017-05-07T17:47:50.344Z,15
2017-05-07T17:48:31.004Z,15
2017-05-07T17:49:11.662Z,15
2017-05-07T17:49:52.305Z,15
2017-05-07T17:50:32.957Z,15
2017-05-07T17:51:13.646Z,15
2017-05-07T17:51:54.284Z,15
2017-05-07T17:52:34.937Z,15
2017-05-07T17:53:15.562Z,15
2017-05-07T17:53:56.266Z,15
2017-05-07T17:54:36.836Z,15
2017-05-07T17:55:17.527Z,10
2017-05-07T17:55:58.178Z,10
2017-05-07T17:56:38.882Z,10
2017-05-07T17:57:19.455Z,10
2017-05-07T17:58:00.138Z,10
2017-05-07T17:58:40.792Z,10
2017-05-07T17:59:21.483Z,10
2017-05-07T18:00:02.046Z,10
2017-05-07T18:00:42.796Z,10
2017-05-07T18:01:23.511Z,10
2017-05-07T18:02:04.138Z,10
2017-05-07T18:02:45.810Z,10
2017-05-07T18:03:26.970Z,10
2017-05-07T18:04:07.732Z,10
2017-05-07T18:04:48.389Z,10
2017-05-07T18:05:29.045Z,10
2017-05-07T18:06:09.696Z,10
2017-05-07T18:06:50.377Z,10
2017-05-07T18:07:31.001Z,10
2017-05-07T18:08:12.035Z,10
2017-05-07T18:08:52.925Z,10
2017-05-07T18:09:34.232Z,10
2017-05-07T18:10:15.550Z,10
2017-05-07T18:10:56.766Z,10
2017-05-07T18:11:38.051Z,10
2017-05-07T18:12:18.783Z,10
2017-05-07T18:12:59.416Z,10
2017-05-07T18:13:40.056Z,10
2017-05-07T18:14:20.750Z,10
2017-05-07T18:15:01.310Z,10
2017-05-07T18:15:41.922Z,10
2017-05-07T18:16:22.592Z,10
2017-05-07T18:17:03.231Z,10
2017-05-07T18:17:43.877Z,10
2017-05-07T18:18:24.537Z,10
2017-05-07T18:19:05.176Z,10
2017-05-07T18:19:45.847Z,5
2017-05-07T18:20:26.481Z,5
2017-05-07T18:21:07.134Z,5
2017-05-07T18:21:47.728Z,5
2017-05-07T18:22:28.291Z,5
2017-05-07T18:23:08.998Z,5
2017-05-07T18:23:49.744Z,5
2017-05-07T18:24:30.442Z,5
2017-05-07T18:25:11.002Z,5
2017-05-07T18:25:51.660Z,5
2017-05-07T18:26:32.260Z,5
2017-05-07T18:27:12.917Z,5
2017-05-07T18:27:53.566Z,5
2017-05-07T18:28:34.209Z,5
2017-05-07T18:29:14.861Z,5
2017-05-07T18:29:55.528Z,5
2017-05-07T18:30:36.185Z,5
2017-05-07T18:31:16.820Z,5
2017-05-07T18:31:57.500Z,5
2017-05-07T18:32:38.120Z,5
2017-05-07T18:33:18.789Z,5
2017-05-07T18:33:59.431Z,5
2017-05-07T18:34:40.096Z,5
2017-05-07T18:35:20.747Z,5
2017-05-07T18:36:01.422Z,5
2017-05-07T18:36:42.072Z,5
2017-05-07T18:37:22.697Z,5
2017-05-07T18:38:03.374Z,5
2017-05-07T18:38:44.001Z,5
2017-05-07T18:39:24.719Z,5
2017-05-07T18:40:05.386Z,5
2017-05-07T18:40:46.138Z,5
2017-05-07T18:41:26.742Z,5
2017-05-07T18:42:07.435Z,5
2017-05-07T18:42:48.192Z,0
2017-05-07T18:43:28.775Z,0
2017-05-07T18:44:09.529Z,0
2017-05-07T18:44:50.267Z,0
2017-05-07T18:45:30.834Z,0
2017-05-07T18:46:11.555Z,0
2017-05-07T18:46:52.301Z,0
2017-05-07T18:47:33.007Z,0
2017-05-07T18:48:13.609Z,0
2017-05-07T18:48:54.381Z,0
2017-05-07T18:49:36.161Z,0
2017-05-07T18:50:16.846Z,0
2017-05-07T18:50:57.433Z,0
2017-05-07T18:51:38.177Z,0
2017-05-07T18:52:18.864Z,0
2017-05-07T18:52:59.558Z,0
2017-05-07T18:53:40.162Z,0
2017-05-07T18:54:20.828Z,0
2017-05-07T18:55:01.620Z,0
2017-05-07T18:55:42.383Z,0
2017-05-07T18:56:23.029Z,0
2017-05-07T18:57:03.754Z,0
2017-05-07T18:57:44.508Z,0
2017-05-07T18:58:25.286Z,0
2017-05-07T18:59:06.009Z,0
2017-05-07T18:59:46.671Z,0
2017-05-07T19:00:27.423Z,0
2017-05-07T19:01:08.091Z,0
2017-05-07T19:01:48.730Z,0
2017-05-07T19:02:29.497Z,0
2017-05-07T19:03:10.241Z,0
2017-05-07T19:03:50.997Z,0
2017-05-07T19:04:31.755Z,0
2017-05-07T19:05:12.505Z,0
2017-05-07T19:05:53.256Z,0
2017-05-07T19:06:34.030Z,0
2017-05-07T19:07:14.773Z,0
2017-05-07T19:07:55.530Z,0
2017-05-07T19:08:36.275Z,0
2017-05-07T19:09:17.973Z,0
2017-05-07T19:09:58.647Z,0
2017-05-07T19:10:39.300Z,0
2017-05-07T19:11:19.952Z,0
2017-05-07T19:12:00.656Z,0
2017-05-07T19:12:41.562Z,0
2017-05-07T19:13:22.234Z,0
2017-05-07T19:14:02.874Z,0
2017-05-07T19:14:43.572Z,0
2017-05-07T19:15:24.150Z,0
2017-05-07T19:16:04.844Z,0
2017-05-07T19:16:45.487Z,0
2017-05-07T19:17:26.148Z,0
2017-05-07T19:18:06.794Z,0
2017-05-07T19:18:47.422Z,0
2017-05-07T19:19:28.087Z,0
2017-05-07T19:20:08.727Z,0
2017-05-07T19:20:49.382Z,0
2017-05-07T19:21:29.972Z,0
2017-05-07T19:22:10.609Z,0
2017-05-07T19:22:51.249Z,0
2017-05-07T19:23:31.828Z,0
2017-05-07T19:24:12.435Z,0
2017-05-07T19:24:53.122Z,0
2017-05-07T19:25:33.687Z,0
2017-05-07T19:26:14.311Z,0
2017-05-07T19:26:54.964Z,0
2017-05-07T19:27:35.601Z,0
2017-05-07T19:28:16.261Z,0
2017-05-07T19:28:56.919Z,0
2017-05-07T19:29:37.567Z,0
2017-05-07T19:30:18.228Z,0
2017-05-07T19:30:58.879Z,0
2017-05-07T19:31:39.544Z,0
2017-05-07T19:32:20.190Z,0
2017-05-07T19:33:00.863Z,0
2017-05-07T19:33:41.490Z,0
2017-05-07T19:34:22.145Z,0
2017-05-07T19:35:02.797Z,0
2017-05-07T19:35:43.450Z,0
2017-05-07T19:36:24.102Z,0
2017-05-07T19:37:05.786Z,0
2017-05-07T19:37:46.452Z,0
2017-05-07T19:38:27.080Z,0
2017-05-07T19:39:07.749Z,0
2017-05-07T19:39:48.381Z,0
2017-05-07T19:40:30.068Z,0
2017-05-07T19:41:10.718Z,0
2017-05-07T19:41:51.412Z,0
2017-05-07T19:42:31.978Z,0
2017-05-07T19:43:12.686Z,0
2017-05-07T19:43:53.331Z,0
2017-05-07T19:44:34.022Z,0
2017-05-07T19:45:14.591Z,0
2017-05-07T19:45:55.275Z,0
2017-05-07T19:46:35.947Z,0
2017-05-07T19:47:16.593Z,0
2017-05-07T19:47:57.250Z,0
2017-05-07T19:48:37.909Z,0
2017-05-07T19:49:18.555Z,0
2017-05-07T19:49:59.215Z,0
2017-05-07T19:50:39.862Z,0
2017-05-07T19:51:20.514Z,0
2017-05-07T19:52:01.208Z,0
2017-05-07T19:52:41.785Z,0
2017-05-07T19:53:22.474Z,0
2017-05-07T19:54:03.124Z,0
2017-05-07T19:54:43.718Z,0
2017-05-07T19:55:24.299Z,0
2017-05-07T19:56:04.875Z,0
2017-05-07T19:56:47.475Z,0
2017-05-07T19:57:28.175Z,0
2017-05-07T19:58:08.887Z,0
2017-05-07T19:58:49.538Z,0
2017-05-07T19:59:31.215Z,0
2017-05-07T20:00:11.910Z,0
2017-05-07T20:00:52.473Z,0
2017-05-07T20:01:33.071Z,0
2017-05-07T20:02:13.737Z,0
2017-05-07T20:02:54.399Z,0
2017-05-07T20:03:35.026Z,0
2017-05-07T20:04:15.732Z,0
2017-05-07T20:04:56.321Z,0
2017-05-07T20:05:37.011Z,0
2017-05-07T20:06:17.639Z,0
2017-05-07T20:06:58.291Z,0
2017-05-07T20:07:39.001Z,0
2017-05-07T20:08:19.558Z,0
2017-05-07T20:09:00.268Z,0
2017-05-07T20:09:40.930Z,0
2017-05-07T20:10:21.613Z,0
2017-05-07T20:11:02.199Z,0
2017-05-07T20:11:42.863Z,0
2017-05-07T20:12:23.535Z,0
2017-05-07T20:13:04.230Z,0
2017-05-07T20:13:44.938Z,0
2017-05-07T20:14:25.589Z,0
2017-05-07T20:15:06.243Z,0
2017-05-07T20:15:46.880Z,0
2017-05-07T20:16:27.535Z,0
2017-05-07T20:17:08.204Z,0
2017-05-07T20:17:48.797Z,0
2017-05-07T20:18:29.362Z,0
2017-05-07T20:19:11.004Z,0
2017-05-07T20:19:51.632Z,0
2017-05-07T20:20:32.322Z,0
2017-05-07T20:21:12.904Z,0
2017-05-07T20:21:54.860Z,0
2017-05-07T20:22:36.507Z,0
2017-05-07T20:23:17.189Z,0
2017-05-07T20:23:57.738Z,0
2017-05-07T20:24:38.466Z,0
2017-05-07T20:25:19.093Z,0
2017-05-07T20:25:59.697Z,0
2017-05-07T20:26:40.251Z,0
2017-05-07T20:27:20.870Z,0
2017-05-07T20:28:01.527Z,0
2017-05-07T20:28:42.179Z,0
2017-05-07T20:29:22.825Z,0
2017-05-07T20:30:03.490Z,0
2017-05-07T20:30:44.133Z,0
2017-05-07T20:31:24.835Z,0
2017-05-07T20:32:05.435Z,0
2017-05-07T20:32:46.120Z,0
2017-05-07T20:33:26.674Z,0
2017-05-07T20:34:07.295Z,0
2017-05-07T20:34:47.948Z,0
2017-05-07T20:35:28.628Z,0
2017-05-07T20:36:09.210Z,0
2017-05-07T20:36:49.912Z,0
2017-05-07T20:37:30.561Z,0
2017-05-07T20:38:11.214Z,0
2017-05-07T20:38:51.837Z,0
2017-05-07T20:39:32.519Z,0
2017-05-07T20:40:13.174Z,0
2017-05-07T20:40:53.826Z,0
2017-05-07T20:41:34.500Z,0
2017-05-07T20:42:15.130Z,0
2017-05-07T20:42:55.783Z,0
2017-05-07T20:43:36.436Z,0
2017-05-07T20:44:17.088Z,0
2017-05-07T20:44:57.742Z,0
2017-05-07T20:45:38.392Z,0
2017-05-07T20:46:19.040Z,0
2017-05-07T20:46:59.698Z,0
2017-05-07T20:47:40.352Z,0
2017-05-07T20:48:21.007Z,0
2017-05-07T20:49:01.655Z,0
2017-05-07T20:49:42.304Z,0
2017-05-07T20:50:22.958Z,0
2017-05-07T20:51:03.618Z,0
2017-05-07T20:51:44.263Z,0
2017-05-07T20:52:24.926Z,0
2017-05-07T20:53:05.576Z,0
2017-05-07T20:53:46.341Z,0
2017-05-07T20:54:26.987Z,0
2017-05-07T20:55:07.640Z,0
2017-05-07T20:55:48.288Z,0
2017-05-07T20:56:28.938Z,0
2017-05-07T20:57:09.629Z,0
2017-05-07T20:57:50.209Z,0
2017-05-07T20:58:30.902Z,0
2017-05-07T20:59:11.551Z,0
2017-05-07T20:59:52.243Z,0
2017-05-07T21:00:32.811Z,0
2017-05-07T21:01:13.531Z,0
2017-05-07T21:01:55.172Z,0
2017-05-07T21:02:35.874Z,0
2017-05-07T21:03:16.433Z,0
2017-05-07T21:03:57.148Z,0
2017-05-07T21:04:37.799Z,0
2017-05-07T21:05:18.492Z,0
2017-05-07T21:05:59.078Z,0
2017-05-07T21:06:39.759Z,0
2017-05-07T21:07:20.421Z,0
2017-05-07T21:08:01.079Z,0
2017-05-07T21:08:41.726Z,0
2017-05-07T21:09:22.369Z,0
2017-05-07T21:10:03.045Z,0
2017-05-07T21:10:44.283Z,0
2017-05-07T21:11:26.746Z,0
2017-05-07T21:12:07.491Z,0
2017-05-07T21:12:48.907Z,0
2017-05-07T21:13:29.488Z,0
2017-05-07T21:14:10.184Z,0
2017-05-07T21:14:50.917Z,0
2017-05-07T21:15:31.624Z,0
2017-05-07T21:16:12.178Z,0
2017-05-07T21:16:52.877Z,0
2017-05-07T21:17:33.659Z,0
2017-05-07T21:18:14.414Z,0
2017-05-07T21:18:55.174Z,0
2017-05-07T21:19:35.848Z,0
2017-05-07T21:20:16.554Z,0
2017-05-07T21:20:57.334Z,0
2017-05-07T21:21:38.065Z,0
2017-05-07T21:22:18.833Z,0
2017-05-07T21:22:59.526Z,0
2017-05-07T21:23:40.100Z,0
2017-05-07T21:24:20.800Z,0
2017-05-07T21:25:01.539Z,0
2017-05-07T21:25:42.241Z,0
2017-05-07T21:26:22.871Z,0
2017-05-07T21:27:03.598Z,0
2017-05-07T21:27:44.182Z,0
2017-05-07T21:28:24.923Z,0
2017-05-07T21:29:05.656Z,0
2017-05-07T21:29:46.234Z,0
2017-05-07T21:30:26.983Z,0
2017-05-07T21:31:07.725Z,0
2017-05-07T21:31:48.302Z,0
2017-05-07T21:32:29.057Z,0
2017-05-07T21:33:09.784Z,0
2017-05-07T21:33:50.364Z,0
2017-05-07T21:34:31.110Z,0
2017-05-07T21:35:12.866Z,0
2017-05-07T21:35:53.451Z,0
2017-05-07T21:36:34.173Z,0
2017-05-07T21:37:14.942Z,0
2017-05-07T21:37:55.801Z,0
2017-05-07T21:38:36.539Z,0
2017-05-07T21:39:17.307Z,0
2017-05-07T21:39:58.047Z,0
2017-05-07T21:40:38.822Z,0
2017-05-07T21:41:20.583Z,0
2017-05-07T21:42:02.107Z,0
2017-05-07T21:42:42.661Z,0
2017-05-07T21:43:23.374Z,0
2017-05-07T21:44:04.160Z,0
2017-05-07T21:44:44.817Z,0
2017-05-07T21:45:25.393Z,0
2017-05-07T21:46:06.092Z,0
2017-05-07T21:46:46.855Z,0
2017-05-07T21:47:27.633Z,0
2017-05-07T21:48:08.183Z,0
2017-05-07T21:48:48.941Z,0
2017-05-07T21:49:30.675Z,0
2017-05-07T21:50:11.372Z,0
2017-05-07T21:50:51.935Z,0
2017-05-07T21:51:32.649Z,0
2017-05-07T21:52:13.410Z,0
2017-05-07T21:52:54.142Z,0
2017-05-07T21:53:34.907Z,0
2017-05-07T21:54:15.564Z,0
2017-05-07T21:54:56.311Z,0
2017-05-07T21:55:38.021Z,0
2017-05-07T21:56:18.735Z,0
2017-05-07T21:56:59.609Z,0
2017-05-07T21:57:40.364Z,0
2017-05-07T21:58:21.127Z,0
2017-05-07T21:59:01.876Z,0
2017-05-07T21:59:42.630Z,0
2017-05-07T22:00:23.382Z,0
2017-05-07T22:01:04.133Z,0
2017-05-07T22:01:44.934Z,0
2017-05-07T22:02:25.505Z,0
2017-05-07T22:03:06.228Z,0
2017-05-07T22:03:46.953Z,0
2017-05-07T22:04:27.650Z,0
2017-05-07T22:05:08.234Z,0
2017-05-07T22:05:49.019Z,0
2017-05-07T22:06:29.775Z,0
2017-05-07T22:07:10.532Z,0
2017-05-07T22:07:51.281Z,0
2017-05-07T22:08:33.065Z,0
2017-05-07T22:09:13.821Z,0
2017-05-07T22:09:55.597Z,0
2017-05-07T22:10:36.354Z,0
2017-05-07T22:11:18.030Z,0
2017-05-07T22:11:58.725Z,0
2017-05-07T22:12:39.302Z,0
2017-05-07T22:13:20.916Z,0
2017-05-07T22:14:01.562Z,0
2017-05-07T22:14:42.253Z,0
2017-05-07T22:15:22.835Z,0
2017-05-07T22:16:04.442Z,0
2017-05-07T22:16:45.093Z,0
2017-05-07T22:17:25.756Z,0
2017-05-07T22:18:06.424Z,0
2017-05-07T22:18:47.089Z,0
2017-05-07T22:19:27.735Z,0
2017-05-07T22:20:08.365Z,0
2017-05-07T22:20:50.039Z,0
2017-05-07T22:21:30.692Z,0
2017-05-07T22:22:11.338Z,0
2017-05-07T22:22:52.001Z,0
2017-05-07T22:23:32.665Z,0
2017-05-07T22:24:13.302Z,0
2017-05-07T22:24:53.959Z,0
2017-05-07T22:25:34.616Z,0
2017-05-07T22:26:15.294Z,0
2017-05-07T22:26:55.918Z,0
2017-05-07T22:27:41.070Z,0
2017-05-07T22:28:21.724Z,0
2017-05-07T22:29:02.378Z,0
2017-05-07T22:29:43.041Z,0
2017-05-07T22:30:24.716Z,0
2017-05-07T22:31:05.366Z,0
2017-05-07T22:31:47.045Z,0
2017-05-07T22:32:27.726Z,0
2017-05-07T22:33:08.298Z,0
2017-05-07T22:33:48.904Z,0
2017-05-07T22:34:29.549Z,0
2017-05-07T22:35:10.239Z,0
2017-05-07T22:35:50.797Z,0
2017-05-07T22:36:31.393Z,0
2017-05-07T22:37:12.068Z,0
2017-05-07T22:37:52.711Z,0
2017-05-07T22:38:33.372Z,0
2017-05-07T22:39:14.038Z,0
2017-05-07T22:39:54.677Z,0
2017-05-07T22:40:35.331Z,0
2017-05-07T22:41:15.963Z,0
2017-05-07T22:41:56.638Z,0
2017-05-07T22:42:37.285Z,0
2017-05-07T22:43:17.966Z,0
2017-05-07T22:43:58.597Z,0
2017-05-07T22:44:39.258Z,0
2017-05-07T22:45:19.893Z,0
2017-05-07T22:46:00.558Z,0
2017-05-07T22:46:41.197Z,0
2017-05-07T22:47:21.847Z,0
2017-05-07T22:48:02.530Z,0
2017-05-07T22:48:43.157Z,0
2017-05-07T22:49:23.802Z,0
2017-05-07T22:50:04.485Z,0
2017-05-07T22:50:45.114Z,0
2017-05-07T22:51:25.769Z,0
2017-05-07T22:52:06.420Z,0
2017-05-07T22:52:47.096Z,0
2017-05-07T22:53:27.737Z,0
2017-05-07T22:54:08.381Z,0
2017-05-07T22:54:49.033Z,0
2017-05-07T22:55:29.680Z,0
2017-05-07T22:56:10.339Z,0
2017-05-07T22:56:51.033Z,0
2017-05-07T22:57:31.585Z,0
2017-05-07T22:58:12.193Z,0
2017-05-07T22:58:52.851Z,0
2017-05-07T22:59:33.544Z,0
2017-05-07T23:00:14.123Z,0
2017-05-07T23:00:54.818Z,0
2017-05-07T23:01:35.456Z,0
2017-05-07T23:02:16.161Z,0
2017-05-07T23:02:56.764Z,0
2017-05-07T23:03:37.421Z,0
2017-05-07T23:04:18.070Z,0
2017-05-07T23:04:58.720Z,0
2017-05-07T23:05:39.377Z,0
2017-05-07T23:06:20.029Z,0
2017-05-07T23:07:01.050Z,0
2017-05-07T23:07:41.586Z,0
2017-05-07T23:08:22.317Z,0
2017-05-07T23:09:02.950Z,0
2017-05-07T23:09:43.649Z,0
2017-05-07T23:10:24.201Z,0
2017-05-07T23:11:04.826Z,0
2017-05-07T23:11:45.465Z,0
2017-05-07T23:12:26.160Z,0
2017-05-07T23:13:06.712Z,0
2017-05-07T23:13:47.414Z,0
2017-05-07T23:14:28.065Z,0
2017-05-07T23:15:08.771Z,0
2017-05-07T23:15:49.319Z,0
2017-05-07T23:16:29.924Z,0
2017-05-07T23:17:10.590Z,0
2017-05-07T23:17:51.248Z,0
2017-05-07T23:18:31.882Z,0
2017-05-07T23:19:12.551Z,0
2017-05-07T23:19:53.190Z,0
2017-05-07T23:20:33.863Z,0
2017-05-07T23:21:15.537Z,0
2017-05-07T23:21:57.214Z,0
2017-05-07T23:22:37.860Z,0
2017-05-07T23:23:18.517Z,0
2017-05-07T23:23:59.161Z,0
2017-05-07T23:24:39.824Z,0
2017-05-07T23:25:20.468Z,0
2017-05-07T23:26:01.132Z,0
2017-05-07T23:26:41.769Z,0
2017-05-07T23:27:22.461Z,0
2017-05-07T23:28:03.015Z,0
2017-05-07T23:28:43.745Z,0
2017-05-07T23:29:24.384Z,0
2017-05-07T23:30:05.072Z,0
2017-05-07T23:30:45.637Z,0
2017-05-07T23:31:26.231Z,0
2017-05-07T23:32:06.907Z,0
2017-05-07T23:32:47.587Z,0
2017-05-07T23:33:28.184Z,0
2017-05-07T23:34:08.863Z,0
2017-05-07T23:34:49.535Z,0
2017-05-07T23:35:31.222Z,0
2017-05-07T23:36:11.798Z,0
2017-05-07T23:36:52.503Z,0
2017-05-07T23:37:33.149Z,0
2017-05-07T23:38:13.841Z,0
2017-05-07T23:38:54.391Z,0
2017-05-07T23:39:35.000Z,0
2017-05-07T23:40:15.658Z,0
2017-05-07T23:40:56.342Z,0
2017-05-07T23:41:36.924Z,0
2017-05-07T23:42:17.616Z,0
2017-05-07T23:42:58.254Z,0
2017-05-07T23:43:38.860Z,0
2017-05-07T23:44:19.434Z,0
2017-05-07T23:45:00.120Z,0
2017-05-07T23:45:40.775Z,0
2017-05-07T23:46:21.466Z,0
2017-05-07T23:47:02.040Z,0
2017-05-07T23:47:42.744Z,0
2017-05-07T23:48:23.402Z,0
2017-05-07T23:49:04.043Z,0
2017-05-07T23:49:44.671Z,0
2017-05-07T23:50:25.359Z,0
2017-05-07T23:51:06.012Z,0
2017-05-07T23:51:46.653Z,0
2017-05-07T23:52:27.306Z,0
2017-05-07T23:53:07.953Z,0
2017-05-07T23:53:48.600Z,0
2017-05-07T23:54:29.272Z,0
2017-05-07T23:55:09.907Z,0
2017-05-07T23:55:50.573Z,0
2017-05-07T23:56:31.234Z,0
2017-05-07T23:57:11.818Z,0
2017-05-07T23:57:52.542Z,0
2017-05-07T23:58:33.186Z,0
2017-05-07T23:59:13.752Z,0
2017-05-07T23:59:54.401Z,0
